Portada
METAR-TAF:

METAR-TAF

Aeroports :

Fukuoka, Japó

latitud: 33-35N, longitud: 130-27E, altitud: 9 m

Observació

L'informe es va fer fa 38 minuts, a les 09:00 UTC
Vent 6 kt del Nord
Temperatura 10°C
Humitat 50%
Pressió 1026 hPa
Visibilitat 10 km o més
Escasses núvols a una alçada de 4000 ft
Cel ennuvolat

METAR: RJFF 270900Z 36006KT 9999 FEW040 BKN/// 10/M00 Q1026 NOSIG RMK 1CU040 A3031

Hora: 18:38 (09:38 UTC)

Pronòstic

L'informe es va fer fa 4 hores i 32 minuts, a les 05:06 UTC
Pronòstic vàlid del 27 a les 06 UTC al 28 a les 12 UTC
Vent 9 kt del Nord-Est
Visibilitat 10 km o més
Escasses núvols a una alçada de 3500 ft
Evolucionant progressivament
l' 27 a les 11 UTC al 27 a les 13 UTC
Vent 4 kt del Sud-Est
Evolucionant progressivament
l' 28 a les 03 UTC al 28 a les 06 UTC
Vent 14 kt del Sud-Est

TAF: RJFF 270506Z 2706/2812 05009KT 9999 FEW035 BECMG 2711/2713 13004KT BECMG 2803/2806 13014KT

Observacions i pronòstics meteorològics de més de 4000 aeroports (METAR i TAF).

Les estacions disponibles són els punts grocs i vermells al mapa.

Posi el ratolí al punt desitjat per veure el nom de l'estació.

Feu clic per veure les observacions i els pronòstics meteorològics.

Per canviar el mapa: feu clic els botons verds amb una creu de color negre per apropar; al botó verd amb un guió per allunyar la imatge; o en les fletxes verdes per a mapes adjacents.


METAR-TAF: